Danville, IL (61832)

12:59 AM CDT on October 25, 2014 (GMT -0500)
Vermilionweather.com | Change Station
CLOSE
Current Station
Personal Weather Station
Location: Danville, IL
Elevation: 627 ft
Nearby Weather Stations

Elev 627 ft 40.17 °N, 87.65 °W | Updated 3 seconds ago

Overcast
Overcast
58.3 °F
Feels Like 58.3 °F
N
0.0
Wind Variable Wind from SE
Gusts 0.0 mph

Today
High -- | Low -- °F
--% Chance of Precip.
Yesterday
High -- | Low -- °F
Precip. -- in
7:11 AM 5:56 PM
New Moon, 2% visible
Pressure 29.95 in
Visibility 7.0 miles
Clouds Mostly Cloudy 4200 ft
Overcast 5000 ft
Dew Point 53 °F
Humidity 83%
Rainfall 0.00 in
Snow Depth Not available.
UV 0 out of 12
Pollen 1.10 out of 12
Air Quality Not available.
Flu Activity No Activity
METAR KDNV 250535Z AUTO 21007KT 7SM BKN042 OVC050 14/12 A2995 RMK AO2 T01350117

More Conditions Fewer Conditions

Pressure 29.95 in
Visibility 7.0 miles
Clouds Mostly Cloudy 4200 ft
Overcast 5000 ft
Dew Point 53 °F
Humidity 83%
Rainfall 0.00 in
Snow Depth Not available.
UV 0 out of 12
Pollen 1.10 out of 12
Air Quality Not available.
Flu Activity No Activity
METAR KDNV 250535Z AUTO 21007KT 7SM BKN042 OVC050 14/12 A2995 RMK AO2 T01350117

More Conditions Fewer Conditions

10-Day Weather Forecast

Almanac

Astronomy

Oct. 25, 2014 Rise Set
Actual Time 7:11 AM CDT 5:56 PM CDT
Civil Twilight 6:44 AM CDT 6:24 PM CDT
Nautical Twilight 6:12 AM CDT 6:56 PM CDT
Astronomical Twilight 5:40 AM CDT 7:27 PM CDT
Moon 8:50 AM CDT 7:19 PM CDT
Length of Visible Light 11h 40m
Length of Day
10h 44m
Tomorrow will be 2m 26s shorter.
New Moon, 2% of the Moon is Illuminated
Today
New Moon
Oct 30
First Quarter
Nov 6
Full
Nov 14
Last Quarter
Nov 22
New

Today's Extremes

State Highs State Lows

Community

WunderPhotos

Upload Photos

1,764,785 photos uploaded!

Nearby

Snow Depth

Station Depth Elevation
No new snow has been reported.

Earthquake Activity

City Distance Mag. Time & Date
No recent earthquake activity has been reported nearby.
Minimum magnitude displayed is 2.5.

Coastal Water Temperatures

Place Temperature
No Stations Reporting

Nearby Weather Stations